createdAt,value
2018-07-30T00:00:35.341Z,95616.78
2018-07-30T00:03:04.498Z,95615.84
2018-07-30T00:05:33.668Z,95621.98
2018-07-30T00:08:02.854Z,95610.86
2018-07-30T00:10:32.005Z,95616.22
2018-07-30T00:13:01.153Z,95616.66
2018-07-30T00:15:30.096Z,95615.49
2018-07-30T00:17:59.283Z,95621.02
2018-07-30T00:20:28.424Z,95620.30
2018-07-30T00:22:57.740Z,95625.14
2018-07-30T00:25:26.876Z,95627.64
2018-07-30T00:27:56.066Z,95627.86
2018-07-30T00:30:25.271Z,95629.55
2018-07-30T00:32:54.507Z,95628.41
2018-07-30T00:35:23.705Z,95624.03
2018-07-30T00:37:52.908Z,95627.67
2018-07-30T00:40:22.073Z,95630.14
2018-07-30T00:42:51.263Z,95627.36
2018-07-30T00:45:20.421Z,95628.96
2018-07-30T00:47:49.581Z,95632.33
2018-07-30T00:50:18.765Z,95631.27
2018-07-30T00:52:47.933Z,95626.63
2018-07-30T00:55:17.095Z,95639.21
2018-07-30T00:57:46.245Z,95637.12
2018-07-30T01:00:15.429Z,95640.23
2018-07-30T01:02:44.571Z,95640.23
2018-07-30T01:05:13.839Z,95641.11
2018-07-30T01:07:43.058Z,95640.89
2018-07-30T01:10:12.200Z,95639.47
2018-07-30T01:12:41.356Z,95641.61
2018-07-30T01:15:10.571Z,95644.02
2018-07-30T01:17:39.764Z,95642.97
2018-07-30T01:20:08.909Z,95636.18
2018-07-30T01:22:38.093Z,95637.95
2018-07-30T01:25:07.265Z,95638.75
2018-07-30T01:27:36.429Z,95641.95
2018-07-30T01:30:06.262Z,95640.03
2018-07-30T01:32:35.425Z,95636.59
2018-07-30T01:35:04.622Z,95635.23
2018-07-30T01:37:33.781Z,95638.20
2018-07-30T01:40:02.960Z,95637.66
2018-07-30T01:42:32.171Z,95632.04
2018-07-30T01:45:01.337Z,95630.60
2018-07-30T01:47:30.671Z,95631.41
2018-07-30T01:49:59.863Z,95635.79
2018-07-30T01:52:29.040Z,95631.08
2018-07-30T01:54:58.193Z,95634.61
2018-07-30T01:57:27.353Z,95632.59
2018-07-30T01:59:56.638Z,95631.34
2018-07-30T02:02:25.884Z,95637.97
2018-07-30T02:04:55.045Z,95638.30
2018-07-30T02:07:24.236Z,95641.82
2018-07-30T02:09:53.529Z,95643.59
2018-07-30T02:12:22.476Z,95638.84
2018-07-30T02:14:51.707Z,95639.80
2018-07-30T02:17:20.883Z,95638.52
2018-07-30T02:19:50.029Z,95638.22
2018-07-30T02:22:19.180Z,95628.84
2018-07-30T02:24:48.343Z,95633.73
2018-07-30T02:27:17.539Z,95637.34
2018-07-30T02:29:46.901Z,95638.15
2018-07-30T02:32:16.091Z,95632.60
2018-07-30T02:34:45.288Z,95641.02
2018-07-30T02:37:14.693Z,95643.88
2018-07-30T02:39:43.842Z,95643.19
2018-07-30T02:42:13.033Z,95633.81
2018-07-30T02:44:42.181Z,95641.16
2018-07-30T02:47:11.345Z,95641.83
2018-07-30T02:49:40.498Z,95645.58
2018-07-30T02:52:09.740Z,95643.66
2018-07-30T02:54:38.917Z,95649.10
2018-07-30T02:57:08.256Z,95651.27
2018-07-30T02:59:37.412Z,95654.36
2018-07-30T03:02:06.589Z,95652.22
2018-07-30T03:04:35.818Z,95650.45
2018-07-30T03:07:04.970Z,95651.63
2018-07-30T03:09:34.169Z,95651.89
2018-07-30T03:12:03.321Z,95645.97
2018-07-30T03:14:32.534Z,95648.44
2018-07-30T03:17:01.705Z,95652.36
2018-07-30T03:19:30.899Z,95645.34
2018-07-30T03:22:00.057Z,95654.41
2018-07-30T03:24:29.236Z,95659.19
2018-07-30T03:26:58.415Z,95658.16
2018-07-30T03:29:27.537Z,95657.05
2018-07-30T03:31:56.743Z,95658.08
2018-07-30T03:34:25.961Z,95659.91
2018-07-30T03:36:55.153Z,95663.25
2018-07-30T03:39:24.114Z,95666.22
2018-07-30T03:41:53.361Z,95668.20
2018-07-30T03:44:22.514Z,95672.19
2018-07-30T03:46:51.704Z,95670.83
2018-07-30T03:49:20.877Z,95670.50
2018-07-30T03:51:50.117Z,95669.56
2018-07-30T03:54:19.265Z,95673.55
2018-07-30T03:56:48.429Z,95677.63
2018-07-30T03:59:18.658Z,95680.95
2018-07-30T04:01:47.834Z,95682.25
2018-07-30T04:04:17.035Z,95679.23
2018-07-30T04:06:46.176Z,95678.17
2018-07-30T04:09:15.356Z,95681.47
2018-07-30T04:11:44.544Z,95680.41
2018-07-30T04:14:13.736Z,95681.22
2018-07-30T04:16:50.234Z,95672.42
2018-07-30T04:19:20.198Z,95673.39
2018-07-30T04:21:49.356Z,95678.75
2018-07-30T04:24:18.505Z,95677.97
2018-07-30T04:26:48.108Z,95680.91
2018-07-30T04:29:17.535Z,95675.08
2018-07-30T04:31:46.684Z,95680.16
2018-07-30T04:34:15.852Z,95674.13
2018-07-30T04:36:45.018Z,95673.36
2018-07-30T04:39:15.203Z,95680.77
2018-07-30T04:41:44.829Z,95686.55
2018-07-30T04:44:13.962Z,95678.80
2018-07-30T04:46:43.126Z,95678.05
2018-07-30T04:49:12.298Z,95677.02
2018-07-30T04:51:41.389Z,95679.00
2018-07-30T04:54:10.599Z,95683.16
2018-07-30T04:56:39.737Z,95677.98
2018-07-30T04:59:08.857Z,95681.82
2018-07-30T05:01:37.993Z,95677.27
2018-07-30T05:04:07.168Z,95677.96
2018-07-30T05:06:36.329Z,95672.34
2018-07-30T05:09:08.095Z,95677.63
2018-07-30T05:11:37.457Z,95678.44
2018-07-30T05:14:06.419Z,95679.22
2018-07-30T05:16:35.573Z,95685.23
2018-07-30T05:19:04.720Z,95693.83
2018-07-30T05:21:33.903Z,95689.38
2018-07-30T05:24:03.070Z,95690.74
2018-07-30T05:26:32.427Z,95691.45
2018-07-30T05:29:01.764Z,95692.41
2018-07-30T05:31:30.942Z,95694.50
2018-07-30T05:34:00.087Z,95691.87
2018-07-30T05:38:57.477Z,95695.88
2018-07-30T05:41:26.617Z,95694.52
2018-07-30T05:43:55.772Z,95690.38
2018-07-30T05:46:24.952Z,95689.89
2018-07-30T05:48:54.567Z,95691.88
2018-07-30T05:51:23.731Z,95695.15
2018-07-30T05:53:52.905Z,95686.83
2018-07-30T05:56:21.828Z,95692.90
2018-07-30T05:58:51.287Z,95691.16
2018-07-30T06:01:20.471Z,95701.00
2018-07-30T06:03:49.636Z,95699.71
2018-07-30T06:06:18.804Z,95702.61
2018-07-30T06:08:47.949Z,95702.11
2018-07-30T06:11:17.081Z,95708.17
2018-07-30T06:13:46.246Z,95710.81
2018-07-30T06:16:15.372Z,95711.69
2018-07-30T06:18:44.558Z,95706.05
2018-07-30T06:21:13.747Z,95716.22
2018-07-30T06:23:42.877Z,95707.47
2018-07-30T06:26:12.073Z,95713.53
2018-07-30T06:28:41.194Z,95716.31
2018-07-30T06:31:10.419Z,95720.23
2018-07-30T06:33:39.576Z,95731.21
2018-07-30T06:36:08.792Z,95734.23
2018-07-30T06:38:37.952Z,95734.92
2018-07-30T06:41:07.138Z,95733.56
2018-07-30T06:43:36.085Z,95738.04
2018-07-30T06:46:05.310Z,95737.87
2018-07-30T06:48:34.489Z,95740.64
2018-07-30T06:51:03.621Z,95741.02
2018-07-30T06:53:32.789Z,95746.52
2018-07-30T06:56:01.913Z,95748.73
2018-07-30T06:58:31.065Z,95750.79
2018-07-30T07:01:00.223Z,95749.50
2018-07-30T07:03:29.348Z,95748.98
2018-07-30T07:05:58.477Z,95753.11
2018-07-30T07:08:27.614Z,95755.97
2018-07-30T07:10:56.790Z,95754.70
2018-07-30T07:13:26.020Z,95752.52
2018-07-30T07:15:55.138Z,95752.67
2018-07-30T07:18:24.277Z,95755.34
2018-07-30T07:20:53.417Z,95750.27
2018-07-30T07:23:22.602Z,95754.76
2018-07-30T07:25:51.873Z,95752.42
2018-07-30T07:28:21.006Z,95749.55
2018-07-30T07:30:50.187Z,95753.67
2018-07-30T07:33:19.315Z,95751.45
2018-07-30T07:35:48.473Z,95749.84
2018-07-30T07:38:17.637Z,95751.94
2018-07-30T07:40:46.824Z,95741.01
2018-07-30T07:43:15.982Z,95745.36
2018-07-30T07:45:45.181Z,95739.90
2018-07-30T07:48:14.410Z,95744.39
2018-07-30T07:50:43.648Z,95740.64
2018-07-30T07:53:12.454Z,95741.55
2018-07-30T07:55:41.603Z,95743.25
2018-07-30T07:58:10.760Z,95739.84
2018-07-30T08:00:39.931Z,95747.02
2018-07-30T08:03:09.125Z,95747.70
2018-07-30T08:05:38.268Z,95740.94
2018-07-30T08:08:07.521Z,95738.75
2018-07-30T08:10:36.693Z,95745.81
2018-07-30T08:13:05.863Z,95747.82
2018-07-30T08:15:35.084Z,95743.69
2018-07-30T08:18:04.296Z,95747.77
2018-07-30T08:20:33.450Z,95751.52
2018-07-30T08:23:02.646Z,95753.22
2018-07-30T08:25:31.825Z,95752.95
2018-07-30T08:28:00.992Z,95755.65
2018-07-30T08:30:30.223Z,95755.17
2018-07-30T08:32:59.385Z,95749.45
2018-07-30T08:35:28.525Z,95753.19
2018-07-30T08:37:57.864Z,95744.92
2018-07-30T08:40:27.020Z,95749.47
2018-07-30T08:42:56.177Z,95756.39
2018-07-30T08:45:25.419Z,95753.61
2018-07-30T08:47:54.586Z,95754.21
2018-07-30T08:50:23.776Z,95757.89
2018-07-30T08:52:52.976Z,95753.08
2018-07-30T08:55:22.162Z,95752.22
2018-07-30T08:57:51.293Z,95760.12
2018-07-30T09:00:20.496Z,95760.30
2018-07-30T09:02:49.659Z,95761.28
2018-07-30T09:05:18.607Z,95753.10
2018-07-30T09:07:47.769Z,95750.85
2018-07-30T09:10:16.913Z,95746.88
2018-07-30T09:12:46.254Z,95748.11
2018-07-30T09:15:15.326Z,95752.70
2018-07-30T09:17:44.503Z,95745.27
2018-07-30T09:20:13.672Z,95745.13
2018-07-30T09:22:42.844Z,95748.41
2018-07-30T09:25:11.971Z,95743.72
2018-07-30T09:27:41.141Z,95742.64
2018-07-30T09:30:10.282Z,95738.60
2018-07-30T09:32:39.683Z,95740.53
2018-07-30T09:35:08.778Z,95741.77
2018-07-30T09:37:37.897Z,95735.18
2018-07-30T09:40:07.119Z,95737.20
2018-07-30T09:42:36.213Z,95741.11
2018-07-30T09:45:05.593Z,95738.38
2018-07-30T09:47:34.557Z,95736.77
2018-07-30T09:50:03.730Z,95735.34
2018-07-30T09:52:32.894Z,95736.11
2018-07-30T09:55:02.074Z,95736.16
2018-07-30T09:57:31.236Z,95733.11
2018-07-30T10:00:00.418Z,95727.94
2018-07-30T10:02:29.609Z,95735.20
2018-07-30T10:04:58.781Z,95731.34
2018-07-30T10:07:28.074Z,95732.59
2018-07-30T10:09:57.202Z,95726.75
2018-07-30T10:12:26.402Z,95730.05
2018-07-30T10:14:55.570Z,95731.20
2018-07-30T10:17:24.741Z,95734.34
2018-07-30T10:19:53.951Z,95734.38
2018-07-30T10:22:23.093Z,95736.61
2018-07-30T10:24:52.345Z,95727.30
2018-07-30T10:27:21.513Z,95729.72
2018-07-30T10:29:50.682Z,95733.86
2018-07-30T10:32:19.824Z,95725.02
2018-07-30T10:34:49.016Z,95723.28
2018-07-30T10:37:18.205Z,95722.55
2018-07-30T10:39:47.412Z,95722.05
2018-07-30T10:42:16.579Z,95726.88
2018-07-30T10:44:45.740Z,95727.36
2018-07-30T10:47:14.865Z,95726.98
2018-07-30T10:49:44.026Z,95720.19
2018-07-30T10:52:13.192Z,95717.31
2018-07-30T10:54:42.360Z,95718.30
2018-07-30T10:57:11.619Z,95714.59
2018-07-30T10:59:40.635Z,95716.80
2018-07-30T11:02:09.837Z,95719.23
2018-07-30T11:04:41.857Z,95711.95
2018-07-30T11:07:11.274Z,95716.89
2018-07-30T11:09:40.553Z,95712.23
2018-07-30T11:12:09.610Z,95707.40
2018-07-30T11:14:38.785Z,95708.59
2018-07-30T11:17:07.867Z,95707.17
2018-07-30T11:19:37.028Z,95713.52
2018-07-30T11:22:06.217Z,95713.57
2018-07-30T11:24:35.465Z,95715.21
2018-07-30T11:27:04.593Z,95711.75
2018-07-30T11:29:33.720Z,95716.20
2018-07-30T11:32:02.912Z,95707.63
2018-07-30T11:34:32.042Z,95704.50
2018-07-30T11:37:01.222Z,95702.12
2018-07-30T11:39:30.165Z,95700.33
2018-07-30T11:41:59.321Z,95694.40
2018-07-30T11:44:28.557Z,95691.65
2018-07-30T11:46:57.704Z,95694.36
2018-07-30T11:49:26.900Z,95692.30
2018-07-30T11:51:56.053Z,95689.63
2018-07-30T11:54:25.299Z,95693.29
2018-07-30T11:56:54.356Z,95690.33
2018-07-30T11:59:23.564Z,95700.22
2018-07-30T12:01:52.760Z,95688.14
2018-07-30T12:04:21.883Z,95690.44
2018-07-30T12:06:51.033Z,95690.02
2018-07-30T12:09:20.184Z,95684.92
2018-07-30T12:11:49.320Z,95682.96
2018-07-30T12:14:18.450Z,95682.80
2018-07-30T12:16:47.632Z,95684.73
2018-07-30T12:19:16.795Z,95684.59
2018-07-30T12:21:46.010Z,95685.26
2018-07-30T12:24:15.122Z,95680.13
2018-07-30T12:26:44.336Z,95683.94
2018-07-30T12:29:13.478Z,95686.14
2018-07-30T12:31:42.888Z,95681.65
2018-07-30T12:34:12.073Z,95680.48
2018-07-30T12:36:41.200Z,95681.33
2018-07-30T12:39:11.393Z,95679.09
2018-07-30T12:41:40.533Z,95681.40
2018-07-30T12:44:09.685Z,95674.95
2018-07-30T12:46:38.817Z,95672.81
2018-07-30T12:49:08.018Z,95675.44
2018-07-30T12:51:37.183Z,95672.73
2018-07-30T12:54:06.328Z,95669.37
2018-07-30T12:56:35.477Z,95668.05
2018-07-30T12:59:04.604Z,95668.57
2018-07-30T13:01:33.753Z,95665.92
2018-07-30T13:04:02.882Z,95668.20
2018-07-30T13:06:32.025Z,95663.97
2018-07-30T13:09:01.215Z,95665.25
2018-07-30T13:11:30.407Z,95668.27
2018-07-30T13:13:59.547Z,95664.54
2018-07-30T13:16:28.688Z,95656.04
2018-07-30T13:18:57.846Z,95657.64
2018-07-30T13:21:27.063Z,95656.28
2018-07-30T13:23:56.165Z,95661.64
2018-07-30T13:26:25.323Z,95656.67
2018-07-30T13:28:54.457Z,95653.00
2018-07-30T13:31:23.577Z,95649.55
2018-07-30T13:33:52.722Z,95646.66
2018-07-30T13:36:21.832Z,95642.25
2018-07-30T13:38:50.973Z,95646.67
2018-07-30T13:41:20.093Z,95643.85
2018-07-30T13:43:49.635Z,95639.52
2018-07-30T13:46:18.851Z,95639.63
2018-07-30T13:48:48.069Z,95632.31
2018-07-30T13:51:17.228Z,95635.30
2018-07-30T13:53:46.380Z,95636.71
2018-07-30T13:56:15.541Z,95631.59
2018-07-30T13:58:44.704Z,95631.00
2018-07-30T14:01:13.934Z,95629.86
2018-07-30T14:03:43.094Z,95630.59
2018-07-30T14:06:12.291Z,95623.47
2018-07-30T14:08:41.503Z,95628.67
2018-07-30T14:11:10.653Z,95621.91
2018-07-30T14:13:40.668Z,95629.64
2018-07-30T14:16:09.832Z,95623.20
2018-07-30T14:18:39.072Z,95633.10
2018-07-30T14:21:08.205Z,95627.27
2018-07-30T14:23:37.340Z,95622.33
2018-07-30T14:26:06.516Z,95621.81
2018-07-30T14:28:35.644Z,95620.84
2018-07-30T14:31:04.792Z,95624.13
2018-07-30T14:33:34.072Z,95614.22
2018-07-30T14:36:03.441Z,95616.23
2018-07-30T14:38:32.643Z,95606.39
2018-07-30T14:41:01.790Z,95611.45
2018-07-30T14:43:30.921Z,95605.75
2018-07-30T14:46:00.099Z,95613.86
2018-07-30T14:48:29.217Z,95609.67
2018-07-30T14:50:58.396Z,95606.72
2018-07-30T14:53:27.657Z,95605.30
2018-07-30T14:55:56.921Z,95601.44
2018-07-30T14:58:26.276Z,95598.78
2018-07-30T15:00:55.439Z,95601.97
2018-07-30T15:03:24.605Z,95598.10
2018-07-30T15:05:53.749Z,95598.88
2018-07-30T15:08:23.049Z,95597.64
2018-07-30T15:10:52.285Z,95596.03
2018-07-30T15:13:21.452Z,95592.15
2018-07-30T15:15:50.601Z,95589.14
2018-07-30T15:18:19.783Z,95592.17
2018-07-30T15:20:48.905Z,95587.15
2018-07-30T15:23:18.054Z,95593.84
2018-07-30T15:25:47.238Z,95590.91
2018-07-30T15:28:16.340Z,95592.35
2018-07-30T15:30:45.472Z,95594.27
2018-07-30T15:33:14.656Z,95585.97
2018-07-30T15:35:43.776Z,95586.34
2018-07-30T15:38:12.910Z,95583.26
2018-07-30T15:40:42.060Z,95592.59
2018-07-30T15:43:11.228Z,95582.89
2018-07-30T15:45:41.311Z,95585.80
2018-07-30T15:48:10.441Z,95585.03
2018-07-30T15:50:39.565Z,95584.77
2018-07-30T15:53:08.758Z,95586.84
2018-07-30T15:55:37.873Z,95582.59
2018-07-30T15:58:07.031Z,95583.24
2018-07-30T16:00:36.497Z,95585.69
2018-07-30T16:03:05.812Z,95586.27
2018-07-30T16:05:34.944Z,95583.73
2018-07-30T16:08:04.080Z,95589.69
2018-07-30T16:10:33.276Z,95590.37
2018-07-30T16:13:02.453Z,95588.99
2018-07-30T16:15:31.899Z,95579.70
2018-07-30T16:18:01.025Z,95580.05
2018-07-30T16:20:30.226Z,95573.23
2018-07-30T16:22:59.388Z,95573.16
2018-07-30T16:25:28.540Z,95574.92
2018-07-30T16:27:57.689Z,95572.31
2018-07-30T16:30:26.904Z,95577.20
2018-07-30T16:32:56.460Z,95577.34
2018-07-30T16:35:25.624Z,95577.27
2018-07-30T16:37:54.796Z,95576.42
2018-07-30T16:40:23.964Z,95572.44
2018-07-30T16:42:53.166Z,95567.22
2018-07-30T16:45:22.661Z,95574.39
2018-07-30T16:47:51.934Z,95577.09
2018-07-30T16:50:21.082Z,95574.83
2018-07-30T16:52:50.552Z,95576.73
2018-07-30T16:55:19.749Z,95581.03
2018-07-30T16:57:48.896Z,95579.00
2018-07-30T17:00:18.091Z,95583.64
2018-07-30T17:02:47.254Z,95581.42
2018-07-30T17:05:17.945Z,95584.88
2018-07-30T17:07:47.248Z,95581.28
2018-07-30T17:10:16.490Z,95586.12
2018-07-30T17:12:45.616Z,95581.23
2018-07-30T17:15:14.745Z,95579.00
2018-07-30T17:17:43.943Z,95580.28
2018-07-30T17:20:14.289Z,95578.48
2018-07-30T17:22:43.873Z,95581.60
2018-07-30T17:25:13.040Z,95577.63
2018-07-30T17:27:42.527Z,95581.28
2018-07-30T17:30:11.654Z,95579.48
2018-07-30T17:32:40.785Z,95580.20
2018-07-30T17:35:09.980Z,95583.89
2018-07-30T17:37:39.125Z,95582.89
2018-07-30T17:40:09.829Z,95586.20
2018-07-30T17:42:39.101Z,95592.44
2018-07-30T17:45:10.619Z,95590.84
2018-07-30T17:47:39.744Z,95592.95
2018-07-30T17:50:09.260Z,95591.16
2018-07-30T17:52:38.401Z,95593.80
2018-07-30T17:55:07.657Z,95595.69
2018-07-30T17:57:36.887Z,95598.81
2018-07-30T18:00:08.511Z,95599.52
2018-07-30T18:02:37.664Z,95602.41
2018-07-30T18:05:07.018Z,95609.91
2018-07-30T18:07:36.275Z,95606.23
2018-07-30T18:10:06.216Z,95609.69
2018-07-30T18:12:35.465Z,95616.92
2018-07-30T18:15:04.626Z,95616.48
2018-07-30T18:17:33.837Z,95617.42
2018-07-30T18:20:02.974Z,95619.73
2018-07-30T18:22:32.251Z,95614.15
2018-07-30T18:25:01.423Z,95617.97
2018-07-30T18:27:30.719Z,95631.79
2018-07-30T18:30:00.136Z,95630.04
2018-07-30T18:32:29.293Z,95634.92
2018-07-30T18:34:58.429Z,95633.16
2018-07-30T18:37:27.572Z,95638.06
2018-07-30T18:39:56.697Z,95644.94
2018-07-30T18:42:25.853Z,95642.22
2018-07-30T18:44:55.445Z,95646.95
2018-07-30T18:47:24.561Z,95642.00
2018-07-30T18:49:54.001Z,95646.52
2018-07-30T18:52:23.132Z,95647.91
2018-07-30T18:54:52.513Z,95642.47
2018-07-30T18:57:21.644Z,95651.89
2018-07-30T18:59:50.772Z,95650.28
2018-07-30T19:02:19.996Z,95648.55
2018-07-30T19:04:49.212Z,95651.69
2018-07-30T19:07:18.350Z,95655.56
2018-07-30T19:09:47.496Z,95655.84
2018-07-30T19:12:16.681Z,95654.59
2018-07-30T19:14:45.833Z,95662.05
2018-07-30T19:17:15.023Z,95657.70
2018-07-30T19:19:44.178Z,95660.02
2018-07-30T19:22:13.383Z,95657.76
2018-07-30T19:24:42.505Z,95662.34
2018-07-30T19:27:11.720Z,95669.21
2018-07-30T19:29:40.865Z,95669.45
2018-07-30T19:32:10.076Z,95670.13
2018-07-30T19:34:39.245Z,95672.44
2018-07-30T19:37:08.506Z,95681.12
2018-07-30T19:39:37.653Z,95680.42
2018-07-30T19:43:10.282Z,95678.40
2018-07-30T19:45:45.825Z,95682.70
2018-07-30T19:48:14.988Z,95683.17
2018-07-30T19:50:44.148Z,95689.11
2018-07-30T19:53:13.366Z,95687.53
2018-07-30T19:55:42.571Z,95686.14
2018-07-30T19:58:11.800Z,95694.70
2018-07-30T20:00:40.852Z,95688.68
2018-07-30T20:03:10.034Z,95685.49
2018-07-30T20:05:39.253Z,95686.41
2018-07-30T20:08:08.434Z,95690.06
2018-07-30T20:10:37.895Z,95688.22
2018-07-30T20:13:07.648Z,95684.79
2018-07-30T20:15:36.888Z,95693.76
2018-07-30T20:18:06.293Z,95685.67
2018-07-30T20:20:35.827Z,95692.06
2018-07-30T20:23:05.255Z,95688.28
2018-07-30T20:25:34.712Z,95686.96
2018-07-30T20:28:04.046Z,95690.72
2018-07-30T20:30:33.285Z,95694.47
2018-07-30T20:33:02.617Z,95696.38
2018-07-30T20:35:31.819Z,95698.92
2018-07-30T20:38:01.070Z,95699.14
2018-07-30T20:40:30.292Z,95698.47
2018-07-30T20:42:59.711Z,95695.73
2018-07-30T20:45:29.234Z,95699.37
2018-07-30T20:47:58.583Z,95699.36
2018-07-30T20:50:28.296Z,95703.59
2018-07-30T20:52:57.609Z,95706.68
2018-07-30T20:55:27.065Z,95707.15
2018-07-30T20:57:56.236Z,95712.38
2018-07-30T21:00:26.329Z,95710.31
2018-07-30T21:02:55.705Z,95711.92
2018-07-30T21:05:28.968Z,95709.72
2018-07-30T21:07:58.297Z,95713.02
2018-07-30T21:10:27.797Z,95713.22
2018-07-30T21:12:56.974Z,95710.48
2018-07-30T21:15:26.299Z,95704.21
2018-07-30T21:17:55.601Z,95707.74
2018-07-30T21:20:24.981Z,95711.48
2018-07-30T21:22:54.793Z,95709.98
2018-07-30T21:25:23.981Z,95705.41
2018-07-30T21:27:53.389Z,95710.66
2018-07-30T21:30:23.129Z,95707.92
2018-07-30T21:32:52.298Z,95707.48
2018-07-30T21:35:21.730Z,95717.40
2018-07-30T21:37:51.096Z,95711.14
2018-07-30T21:40:20.280Z,95719.94
2018-07-30T21:42:49.455Z,95712.96
2018-07-30T21:45:18.742Z,95712.39
2018-07-30T21:47:47.915Z,95711.14
2018-07-30T21:50:17.304Z,95712.29
2018-07-30T21:52:46.370Z,95705.67
2018-07-30T21:55:15.529Z,95706.12
2018-07-30T21:57:44.695Z,95705.88
2018-07-30T22:00:22.940Z,95702.22
2018-07-30T22:02:53.236Z,95707.20
2018-07-30T22:05:22.405Z,95703.21
2018-07-30T22:07:51.565Z,95709.53
2018-07-30T22:10:22.672Z,95713.61
2018-07-30T22:12:53.576Z,95722.72
2018-07-30T22:15:23.464Z,95717.61
2018-07-30T22:17:52.652Z,95714.12
2018-07-30T22:20:21.800Z,95719.02
2018-07-30T22:22:50.952Z,95716.29
2018-07-30T22:25:20.131Z,95709.92
2018-07-30T22:27:49.052Z,95715.23
2018-07-30T22:30:18.225Z,95720.66
2018-07-30T22:32:47.221Z,95716.09
2018-07-30T22:35:16.140Z,95720.53
2018-07-30T22:37:45.257Z,95716.87
2018-07-30T22:40:14.392Z,95722.69
2018-07-30T22:42:43.584Z,95716.27
2018-07-30T22:45:12.542Z,95714.69
2018-07-30T22:47:41.717Z,95716.61
2018-07-30T22:50:10.888Z,95718.22
2018-07-30T22:52:40.060Z,95722.75
2018-07-30T22:55:09.232Z,95730.60
2018-07-30T22:57:38.389Z,95729.23
2018-07-30T23:00:08.085Z,95727.14
2018-07-30T23:02:37.314Z,95724.75
2018-07-30T23:05:06.978Z,95728.41
2018-07-30T23:07:36.376Z,95725.50
2018-07-30T23:10:05.984Z,95725.56
2018-07-30T23:12:35.195Z,95730.86
2018-07-30T23:15:04.408Z,95720.20
2018-07-30T23:17:33.623Z,95721.66
2018-07-30T23:20:02.768Z,95720.56
2018-07-30T23:22:31.945Z,95720.05
2018-07-30T23:25:01.137Z,95720.81
2018-07-30T23:27:30.288Z,95717.03
2018-07-30T23:29:59.490Z,95718.78
2018-07-30T23:32:28.640Z,95719.03
2018-07-30T23:34:57.820Z,95722.06
2018-07-30T23:37:27.162Z,95718.35
2018-07-30T23:39:56.172Z,95717.55
2018-07-30T23:42:25.363Z,95720.58
2018-07-30T23:44:54.408Z,95716.57
2018-07-30T23:47:23.576Z,95723.09
2018-07-30T23:49:52.755Z,95716.48
2018-07-30T23:52:21.904Z,95709.00
2018-07-30T23:54:51.069Z,95708.39
2018-07-30T23:57:20.248Z,95710.78
2018-07-30T23:59:49.397Z,95707.59
